Time;durP1;ratioP1;P1;durP2;ratioP2;P2;SDS_P1;SDS_P2;PMS_P1;PMS_P2;Temp;Humidity;BMP_temperature;BMP_pressure;BME280_temperature;BME280_humidity;BME280_pressure;Samples;Min_cycle;Max_cycle;Signal;HPM_P1;HPM_P2
2022/05/07 00:00:44;;;;;;;28.40;18.60;;;12.50;99.90;;;;;;4990782;28;20046;-80
2022/05/07 00:03:10;;;;;;;19.85;17.20;;;12.50;99.90;;;;;;4972571;28;20082;-81
2022/05/07 00:05:37;;;;;;;24.30;17.88;;;12.50;99.90;;;;;;4972672;28;20053;-80
2022/05/07 00:08:04;;;;;;;24.05;18.20;;;12.50;99.90;;;;;;5012857;28;20088;-80
2022/05/07 00:10:30;;;;;;;29.30;18.23;;;12.50;99.90;;;;;;4974088;28;20102;-84
2022/05/07 00:12:55;;;;;;;22.58;17.67;;;12.50;99.90;;;;;;4973957;28;20053;-81
2022/05/07 00:15:22;;;;;;;24.58;18.73;;;12.50;99.90;;;;;;4991546;28;20038;-82
2022/05/07 00:18:06;;;;;;;20.25;17.15;;;12.40;99.90;;;;;;4991465;28;20052;-81
2022/05/07 00:20:33;;;;;;;21.77;17.13;;;12.50;99.90;;;;;;4992907;28;20058;-84
2022/05/07 00:23:01;;;;;;;22.42;17.75;;;12.50;99.90;;;;;;4975079;28;20153;-83
2022/05/07 00:25:29;;;;;;;20.63;16.98;;;12.50;99.90;;;;;;5022211;28;20045;-82
2022/05/07 00:27:55;;;;;;;23.05;18.30;;;12.50;99.90;;;;;;4975290;28;20049;-82
2022/05/07 00:30:21;;;;;;;24.02;17.20;;;12.60;99.90;;;;;;4974825;28;20046;-82
2022/05/07 00:32:47;;;;;;;22.77;17.70;;;12.60;99.90;;;;;;4971131;28;20049;-81
2022/05/07 00:35:13;;;;;;;23.45;16.73;;;12.60;99.90;;;;;;4991310;28;20042;-82
2022/05/07 00:37:39;;;;;;;21.83;15.95;;;12.60;99.90;;;;;;4990287;28;20042;-81
2022/05/07 00:40:06;;;;;;;21.60;16.55;;;12.60;99.90;;;;;;4991832;28;20053;-82
2022/05/07 00:42:32;;;;;;;22.48;17.15;;;12.60;99.90;;;;;;4987669;28;20046;-83
2022/05/07 00:44:57;;;;;;;21.77;16.45;;;12.60;99.90;;;;;;4990634;28;20048;-81
2022/05/07 00:47:30;;;;;;;21.58;16.50;;;12.60;99.90;;;;;;4986806;28;20042;-81
2022/05/07 00:52:43;;;;;;;20.17;15.68;;;12.60;99.90;;;;;;5005235;28;20057;-82
2022/05/07 00:55:13;;;;;;;23.83;17.98;;;12.60;99.90;;;;;;5005471;28;20054;-82
2022/05/07 00:57:40;;;;;;;25.55;18.25;;;12.60;99.90;;;;;;5022763;28;20081;-82
2022/05/07 01:00:06;;;;;;;22.40;17.77;;;12.60;99.90;;;;;;4971746;28;20042;-82
2022/05/07 01:02:33;;;;;;;23.25;17.05;;;12.50;99.90;;;;;;4984211;28;20054;-81
2022/05/07 01:04:59;;;;;;;24.58;18.33;;;12.50;99.90;;;;;;4990508;28;20050;-81
2022/05/07 01:07:25;;;;;;;25.00;17.98;;;12.50;99.90;;;;;;4990861;28;20567;-82
2022/05/07 01:09:52;;;;;;;23.50;18.27;;;12.50;99.90;;;;;;4992077;28;20081;-82
2022/05/07 01:12:17;;;;;;;26.52;20.17;;;12.50;99.90;;;;;;4991507;28;20062;-82
2022/05/07 01:14:43;;;;;;;26.83;20.10;;;12.50;99.90;;;;;;4989910;28;20056;-82
2022/05/07 01:17:09;;;;;;;25.95;19.73;;;12.60;99.90;;;;;;4990178;28;20060;-82
2022/05/07 01:19:35;;;;;;;25.38;19.30;;;12.50;99.90;;;;;;5015013;28;20076;-86
2022/05/07 01:22:05;;;;;;;23.15;18.33;;;12.50;99.90;;;;;;4991159;28;20045;-82
2022/05/07 01:24:31;;;;;;;26.20;19.67;;;12.60;99.90;;;;;;4989707;28;20081;-81
2022/05/07 01:26:56;;;;;;;32.20;21.58;;;12.60;99.90;;;;;;5021549;28;20054;-81
2022/05/07 01:29:22;;;;;;;31.63;21.88;;;12.60;99.90;;;;;;4994677;28;20050;-80
2022/05/07 01:31:48;;;;;;;29.10;20.98;;;12.60;99.90;;;;;;4994552;28;20053;-82
2022/05/07 01:34:13;;;;;;;30.52;21.50;;;12.60;99.90;;;;;;5026773;28;20046;-83
2022/05/07 01:36:40;;;;;;;28.15;21.92;;;12.60;99.90;;;;;;4961064;28;20049;-82
2022/05/07 01:39:05;;;;;;;27.70;20.60;;;12.60;99.90;;;;;;5025512;28;20046;-81
2022/05/07 01:41:31;;;;;;;30.27;21.50;;;12.70;99.90;;;;;;5028138;28;20046;-81
2022/05/07 01:43:58;;;;;;;31.63;21.30;;;12.70;99.90;;;;;;5009667;28;20461;-81
2022/05/07 01:49:08;;;;;;;30.15;22.13;;;12.70;99.90;;;;;;5009475;28;20081;-82
2022/05/07 01:51:34;;;;;;;30.77;21.67;;;12.70;99.90;;;;;;4965552;28;20078;-82
2022/05/07 01:54:00;;;;;;;26.83;21.65;;;12.70;99.90;;;;;;5009102;28;20107;-83
2022/05/07 01:56:26;;;;;;;31.20;21.00;;;12.70;99.90;;;;;;4993850;28;20039;-81
2022/05/07 01:58:51;;;;;;;30.20;21.77;;;12.70;99.90;;;;;;4992765;28;20479;-82
2022/05/07 02:01:18;;;;;;;31.38;22.33;;;12.70;99.90;;;;;;4989283;28;20038;-82
2022/05/07 02:03:43;;;;;;;28.83;22.00;;;12.70;99.90;;;;;;4990536;28;20046;-82
2022/05/07 02:06:09;;;;;;;29.38;21.88;;;12.70;99.90;;;;;;4971127;28;20107;-82
2022/05/07 02:08:36;;;;;;;31.52;23.60;;;12.70;99.90;;;;;;5026128;28;20133;-82
2022/05/07 02:11:02;;;;;;;32.50;23.25;;;12.70;99.90;;;;;;5025850;28;20046;-83
2022/05/07 02:13:28;;;;;;;30.75;22.90;;;12.70;99.90;;;;;;4977133;28;20196;-83
2022/05/07 02:15:54;;;;;;;30.48;21.92;;;12.70;99.90;;;;;;4991001;28;20050;-82
2022/05/07 02:18:20;;;;;;;30.08;22.85;;;12.70;99.90;;;;;;4991646;28;20038;-83
2022/05/07 02:20:45;;;;;;;29.73;22.85;;;12.70;99.90;;;;;;5026065;28;20111;-81
2022/05/07 02:23:11;;;;;;;31.33;23.17;;;12.70;99.90;;;;;;5001001;28;20065;-81
2022/05/07 02:25:37;;;;;;;32.83;23.20;;;12.70;99.90;;;;;;5026861;28;20175;-83
2022/05/07 02:28:06;;;;;;;34.20;22.60;;;12.60;99.90;;;;;;4990680;28;20049;-83
2022/05/07 02:30:32;;;;;;;32.08;25.20;;;12.60;99.90;;;;;;4992635;28;20049;-83
2022/05/07 02:32:58;;;;;;;27.58;22.15;;;12.60;99.90;;;;;;4994331;28;20058;-81
2022/05/07 02:35:25;;;;;;;30.95;22.42;;;12.60;99.90;;;;;;4976467;28;20081;-82
2022/05/07 02:37:50;;;;;;;28.42;22.75;;;12.60;99.90;;;;;;4990021;28;20041;-82
2022/05/07 02:40:16;;;;;;;31.40;23.58;;;12.60;99.90;;;;;;4977223;28;20042;-82
2022/05/07 02:42:43;;;;;;;32.92;24.90;;;12.50;99.90;;;;;;4993410;28;20054;-86
2022/05/07 02:45:11;;;;;;;29.10;22.23;;;12.50;99.90;;;;;;4993382;28;20508;-82
2022/05/07 02:47:39;;;;;;;30.80;23.48;;;12.50;99.90;;;;;;4993184;28;20050;-82
2022/05/07 02:50:06;;;;;;;32.25;22.40;;;12.60;99.90;;;;;;4989970;28;20077;-83
2022/05/07 02:52:35;;;;;;;29.75;24.02;;;12.50;99.90;;;;;;5026415;28;20045;-82
2022/05/07 02:55:06;;;;;;;32.03;22.35;;;12.60;99.90;;;;;;4974100;28;20140;-81
2022/05/07 02:57:31;;;;;;;30.98;23.45;;;12.60;99.90;;;;;;5006422;28;20552;-82
2022/05/07 02:59:57;;;;;;;27.55;22.60;;;12.50;99.90;;;;;;5023913;28;20136;-85
2022/05/07 03:02:23;;;;;;;35.00;23.73;;;12.40;99.90;;;;;;4990795;28;20129;-81
2022/05/07 03:04:50;;;;;;;30.05;22.83;;;12.60;99.90;;;;;;4988686;28;20548;-81
2022/05/07 03:07:15;;;;;;;31.63;23.95;;;12.50;99.90;;;;;;4990300;28;20041;-81
2022/05/07 03:09:41;;;;;;;30.17;23.10;;;12.50;99.90;;;;;;4993870;28;20054;-81
2022/05/07 03:12:09;;;;;;;31.10;24.00;;;12.60;99.90;;;;;;5024356;28;20154;-82
2022/05/07 03:14:35;;;;;;;32.15;24.60;;;12.50;99.90;;;;;;5025786;28;20125;-82
2022/05/07 03:17:00;;;;;;;30.50;24.80;;;12.50;99.90;;;;;;4991971;28;20145;-83
2022/05/07 03:19:26;;;;;;;29.95;24.88;;;12.50;99.90;;;;;;4993680;28;20048;-82
2022/05/07 03:21:52;;;;;;;34.85;25.77;;;12.40;99.90;;;;;;5022750;28;20053;-83
2022/05/07 03:24:18;;;;;;;30.65;24.77;;;12.40;99.90;;;;;;4974296;28;20114;-82
2022/05/07 03:26:44;;;;;;;31.27;24.73;;;12.40;99.90;;;;;;4993788;28;20046;-82
2022/05/07 03:29:09;;;;;;;30.73;23.42;;;12.40;99.90;;;;;;4975613;28;20126;-82
2022/05/07 03:31:37;;;;;;;32.78;24.48;;;12.30;99.90;;;;;;4966987;28;20133;-82
2022/05/07 03:34:02;;;;;;;35.03;24.65;;;12.30;99.90;;;;;;4991195;28;20553;-82
2022/05/07 03:36:28;;;;;;;35.03;24.77;;;12.20;99.90;;;;;;5026001;28;20138;-82
2022/05/07 03:38:54;;;;;;;31.45;23.98;;;12.20;99.90;;;;;;4991275;28;20049;-82
2022/05/07 03:41:19;;;;;;;27.40;23.73;;;12.20;99.90;;;;;;4976342;28;20045;-82
2022/05/07 03:43:45;;;;;;;33.17;23.60;;;12.20;99.90;;;;;;5023944;28;20045;-82
2022/05/07 03:46:11;;;;;;;32.05;23.92;;;12.20;99.90;;;;;;5024805;28;20448;-82
2022/05/07 03:48:37;;;;;;;35.88;25.23;;;12.20;99.90;;;;;;4971881;28;20652;-82
2022/05/07 03:51:03;;;;;;;33.88;24.20;;;12.10;99.90;;;;;;4990026;28;20392;-81
2022/05/07 03:53:31;;;;;;;32.03;25.40;;;12.10;99.90;;;;;;5006948;28;20508;-81
2022/05/07 03:56:02;;;;;;;32.90;24.75;;;12.10;99.90;;;;;;5024438;28;20044;-81
2022/05/07 03:58:29;;;;;;;30.38;23.77;;;12.10;99.90;;;;;;5025006;28;20053;-82
2022/05/07 04:00:57;;;;;;;31.33;23.63;;;12.20;99.90;;;;;;5023056;28;20100;-82
2022/05/07 04:03:23;;;;;;;32.05;24.38;;;12.10;99.90;;;;;;4996453;28;20057;-82
2022/05/07 04:05:49;;;;;;;32.80;25.10;;;12.10;99.90;;;;;;4991262;28;20523;-84
2022/05/07 04:08:16;;;;;;;34.25;24.98;;;12.10;99.90;;;;;;4991473;28;20038;-82
2022/05/07 04:10:44;;;;;;;31.00;24.17;;;12.20;99.90;;;;;;5022749;28;20057;-82
2022/05/07 04:13:11;;;;;;;31.42;24.73;;;12.20;99.90;;;;;;4990936;28;20048;-82
2022/05/07 04:15:38;;;;;;;33.22;25.00;;;12.20;99.90;;;;;;4985188;28;20084;-82
2022/05/07 04:18:06;;;;;;;31.17;24.80;;;12.30;99.90;;;;;;4991566;28;20046;-82
2022/05/07 04:20:32;;;;;;;32.95;24.13;;;12.20;99.90;;;;;;5022592;28;20128;-83
2022/05/07 04:22:58;;;;;;;30.17;24.13;;;12.30;99.90;;;;;;4990006;28;20100;-84
2022/05/07 04:25:24;;;;;;;34.22;24.13;;;12.30;99.90;;;;;;4988189;28;20053;-82
2022/05/07 04:27:50;;;;;;;27.88;23.40;;;12.40;99.90;;;;;;5006682;28;20397;-84
2022/05/07 04:30:16;;;;;;;31.60;24.13;;;12.40;99.90;;;;;;5007840;28;20053;-81
2022/05/07 04:32:42;;;;;;;32.97;23.38;;;12.50;99.90;;;;;;4991264;28;20132;-81
2022/05/07 04:35:08;;;;;;;29.52;22.98;;;12.40;99.90;;;;;;4989286;28;20058;-81
2022/05/07 04:37:33;;;;;;;27.10;22.10;;;12.50;99.90;;;;;;4969993;28;20057;-82
2022/05/07 04:39:59;;;;;;;29.23;22.13;;;12.50;99.90;;;;;;4963586;28;20046;-82
2022/05/07 04:42:25;;;;;;;29.77;22.75;;;12.60;99.90;;;;;;4984821;28;20042;-82
2022/05/07 04:44:51;;;;;;;26.05;21.48;;;12.60;99.90;;;;;;4990951;28;20037;-81
2022/05/07 04:47:16;;;;;;;31.55;22.13;;;12.70;99.90;;;;;;4988480;28;20045;-82
2022/05/07 04:49:42;;;;;;;30.00;21.73;;;12.70;99.90;;;;;;5024301;28;20566;-82
2022/05/07 04:52:08;;;;;;;30.52;23.75;;;12.80;99.90;;;;;;5023163;28;20056;-82
2022/05/07 04:54:34;;;;;;;28.73;22.40;;;12.90;99.90;;;;;;4990472;28;20058;-82
2022/05/07 04:57:00;;;;;;;30.27;24.88;;;12.90;99.90;;;;;;5003813;28;20086;-82
2022/05/07 04:59:27;;;;;;;30.80;24.08;;;12.90;99.90;;;;;;5023632;28;20045;-82
2022/05/07 05:01:52;;;;;;;28.73;23.55;;;12.90;99.90;;;;;;4975204;28;20104;-81
2022/05/07 05:04:18;;;;;;;29.75;23.42;;;12.90;99.90;;;;;;4973650;28;20163;-84
2022/05/07 05:06:44;;;;;;;31.33;23.25;;;12.90;99.90;;;;;;4987693;28;20049;-80
2022/05/07 05:09:12;;;;;;;33.85;25.38;;;12.80;99.90;;;;;;5022822;28;20440;-82
2022/05/07 05:11:38;;;;;;;34.00;26.95;;;12.80;99.90;;;;;;5006843;28;20057;-84
2022/05/07 05:16:49;;;;;;;33.95;25.83;;;12.70;99.90;;;;;;4993243;28;20133;-82
2022/05/07 05:19:16;;;;;;;29.23;24.67;;;12.60;99.90;;;;;;4989370;28;20038;-82
2022/05/07 05:21:42;;;;;;;31.27;25.08;;;12.60;99.90;;;;;;4988198;28;20603;-82
2022/05/07 05:24:08;;;;;;;31.30;25.02;;;12.60;99.90;;;;;;4973568;28;20190;-82
2022/05/07 05:26:34;;;;;;;28.55;23.38;;;12.60;99.90;;;;;;4989822;28;20061;-84
2022/05/07 05:28:59;;;;;;;27.35;23.30;;;12.60;99.90;;;;;;5019392;28;20034;-82
2022/05/07 05:31:25;;;;;;;34.40;26.50;;;12.70;99.90;;;;;;4991591;28;20104;-81
2022/05/07 05:33:51;;;;;;;31.63;25.65;;;12.70;99.90;;;;;;4971405;28;20505;-78
2022/05/07 05:36:16;;;;;;;29.70;23.92;;;12.80;99.90;;;;;;4967578;28;20228;-83
2022/05/07 05:38:42;;;;;;;31.42;24.58;;;12.90;99.90;;;;;;4973890;28;20125;-81
2022/05/07 05:41:08;;;;;;;34.42;25.23;;;12.90;99.90;;;;;;4990957;28;20057;-81
2022/05/07 05:43:33;;;;;;;32.35;25.13;;;13.00;99.90;;;;;;4975022;28;20526;-83
2022/05/07 05:45:59;;;;;;;34.22;26.50;;;13.10;99.90;;;;;;5005138;28;20073;-84
2022/05/07 05:48:29;;;;;;;34.33;28.45;;;13.10;99.90;;;;;;5022682;28;20054;-82
2022/05/07 05:50:55;;;;;;;30.65;26.08;;;13.20;99.90;;;;;;4966650;28;20058;-83
2022/05/07 05:53:21;;;;;;;32.30;26.52;;;13.30;99.90;;;;;;5022718;28;20073;-80
2022/05/07 05:55:49;;;;;;;35.97;27.65;;;13.30;99.90;;;;;;5024392;28;20137;-81
2022/05/07 05:58:15;;;;;;;36.22;28.10;;;13.40;99.90;;;;;;4988950;28;20133;-81
2022/05/07 06:00:41;;;;;;;32.85;26.13;;;13.60;99.90;;;;;;4959197;28;20057;-80
2022/05/07 06:03:07;;;;;;;32.80;26.92;;;13.60;99.90;;;;;;4992883;28;20050;-82
2022/05/07 06:05:33;;;;;;;33.35;26.90;;;13.70;99.90;;;;;;4989608;28;20042;-81
2022/05/07 06:07:59;;;;;;;33.42;27.83;;;13.80;99.90;;;;;;4990743;28;20050;-83
2022/05/07 06:10:25;;;;;;;35.92;26.65;;;13.90;99.90;;;;;;5023703;28;20489;-82
2022/05/07 06:12:51;;;;;;;30.77;26.23;;;14.00;99.90;;;;;;4972130;28;20081;-83
2022/05/07 06:15:17;;;;;;;29.58;26.08;;;14.00;99.90;;;;;;4978932;28;20046;-83
2022/05/07 06:17:42;;;;;;;35.55;26.70;;;14.10;99.90;;;;;;4990288;28;20084;-83
2022/05/07 06:20:09;;;;;;;32.70;26.42;;;14.10;99.90;;;;;;4977417;28;20057;-83
2022/05/07 06:22:34;;;;;;;34.20;27.95;;;14.20;99.90;;;;;;5006922;28;20069;-83
2022/05/07 06:27:44;;;;;;;31.17;24.85;;;14.30;99.90;;;;;;5013376;28;20569;-82
2022/05/07 06:30:10;;;;;;;32.33;25.40;;;14.40;99.90;;;;;;4994614;28;20049;-81
2022/05/07 06:32:38;;;;;;;29.23;25.42;;;14.60;99.90;;;;;;5027636;28;20054;-82
2022/05/07 06:35:06;;;;;;;29.75;25.05;;;14.70;99.90;;;;;;4994574;28;20068;-81
2022/05/07 06:37:34;;;;;;;33.90;24.77;;;14.90;99.90;;;;;;5027974;28;20104;-82
2022/05/07 06:40:01;;;;;;;29.55;25.05;;;15.00;99.90;;;;;;4995113;28;20054;-82
2022/05/07 06:42:27;;;;;;;27.63;23.95;;;15.10;99.90;;;;;;5027127;28;20046;-81
2022/05/07 06:44:53;;;;;;;25.98;22.73;;;15.30;99.90;;;;;;5027657;28;20048;-82
2022/05/07 06:47:18;;;;;;;27.55;22.10;;;15.30;99.90;;;;;;5026886;28;20045;-82
2022/05/07 06:49:44;;;;;;;30.45;22.48;;;15.40;99.90;;;;;;4994015;28;20155;-82
2022/05/07 06:52:11;;;;;;;28.35;22.70;;;15.40;99.90;;;;;;4991879;28;20507;-80
2022/05/07 06:54:36;;;;;;;26.83;22.50;;;15.60;99.90;;;;;;4977022;28;20058;-81
2022/05/07 06:57:05;;;;;;;26.35;22.38;;;15.80;99.90;;;;;;4959328;28;20058;-82
2022/05/07 06:59:31;;;;;;;26.60;22.05;;;15.90;99.90;;;;;;4975149;28;20046;-82
2022/05/07 07:01:57;;;;;;;28.40;22.58;;;15.90;99.90;;;;;;4974003;28;20050;-79
2022/05/07 07:04:29;;;;;;;25.05;21.17;;;15.90;99.90;;;;;;5000737;28;20511;-79
2022/05/07 07:06:55;;;;;;;26.92;21.85;;;16.00;99.90;;;;;;5020030;28;20042;-80
2022/05/07 07:09:20;;;;;;;28.20;22.88;;;16.00;99.90;;;;;;4993563;28;20121;-80
2022/05/07 07:11:47;;;;;;;25.38;21.73;;;16.20;99.90;;;;;;5026969;28;20071;-81
2022/05/07 07:14:13;;;;;;;27.42;19.85;;;16.30;99.90;;;;;;5025139;28;20049;-80
2022/05/07 07:16:38;;;;;;;26.40;19.70;;;16.20;99.90;;;;;;5019803;28;20061;-81
2022/05/07 07:19:04;;;;;;;22.70;18.98;;;16.30;99.90;;;;;;5025426;28;20042;-81
2022/05/07 07:21:30;;;;;;;22.48;18.58;;;16.30;99.90;;;;;;4992581;28;20064;-80
2022/05/07 07:23:59;;;;;;;24.55;18.42;;;16.20;99.90;;;;;;5025853;28;20054;-81
2022/05/07 07:26:25;;;;;;;21.85;16.48;;;16.30;99.90;;;;;;5025496;28;20108;-80
2022/05/07 07:28:52;;;;;;;21.80;17.63;;;16.40;99.90;;;;;;4993453;28;20050;-80
2022/05/07 07:31:17;;;;;;;20.23;17.02;;;16.60;99.90;;;;;;4992595;28;20050;-81
2022/05/07 07:33:43;;;;;;;19.27;17.23;;;16.80;99.90;;;;;;4992691;28;20113;-82
2022/05/07 07:36:11;;;;;;;20.35;16.35;;;16.90;99.90;;;;;;4989614;28;20050;-80
2022/05/07 07:38:38;;;;;;;23.58;13.88;;;17.00;99.90;;;;;;4987245;28;20609;-80
2022/05/07 07:41:04;;;;;;;19.05;14.00;;;17.20;99.90;;;;;;5023167;28;20050;-81
2022/05/07 07:43:30;;;;;;;20.05;15.32;;;17.40;99.90;;;;;;4991113;28;20057;-80
2022/05/07 07:48:41;;;;;;;17.55;14.23;;;17.70;98.40;;;;;;5012032;28;20636;-79
2022/05/07 07:51:07;;;;;;;23.42;14.50;;;17.80;97.70;;;;;;5025540;28;20042;-83
2022/05/07 07:53:34;;;;;;;20.80;14.63;;;18.10;97.10;;;;;;5025398;28;20045;-83
2022/05/07 07:56:00;;;;;;;20.98;14.45;;;18.30;94.60;;;;;;4991182;28;21823;-80
2022/05/07 07:58:26;;;;;;;17.17;14.20;;;18.40;92.70;;;;;;4990741;28;20037;-81
2022/05/07 08:00:52;;;;;;;18.30;15.02;;;18.40;91.80;;;;;;4973815;28;20050;-80
2022/05/07 08:06:23;;;;;;;29.40;22.30;;;18.40;90.70;;;;;;5140576;27;20169;-82
2022/05/07 08:11:40;;;;;;;23.50;18.65;;;18.30;91.20;;;;;;5124487;27;20051;-84
2022/05/07 08:14:09;;;;;;;24.40;18.50;;;18.40;91.80;;;;;;5151772;27;20455;-82
2022/05/07 08:16:38;;;;;;;19.75;17.10;;;18.50;92.30;;;;;;5129785;27;20054;-83
2022/05/07 08:19:04;;;;;;;19.75;16.52;;;18.80;91.40;;;;;;5127234;27;20039;-83
2022/05/07 08:21:30;;;;;;;22.13;18.10;;;19.10;88.50;;;;;;5127391;27;20040;-81
2022/05/07 08:23:55;;;;;;;29.75;19.33;;;19.40;85.70;;;;;;5143125;27;20513;-83
2022/05/07 08:26:21;;;;;;;196.65;36.63;;;19.50;86.10;;;;;;5120461;27;20040;-83
2022/05/07 08:28:47;;;;;;;21.42;18.08;;;19.60;86.80;;;;;;5130746;27;20083;-81
2022/05/07 08:31:14;;;;;;;21.42;17.48;;;19.80;85.30;;;;;;5125787;27;20126;-82
2022/05/07 08:33:46;;;;;;;22.60;16.90;;;19.90;82.50;;;;;;5126909;27;20050;-81
2022/05/07 08:36:12;;;;;;;18.55;16.27;;;20.00;80.40;;;;;;5117935;27;20039;-85
2022/05/07 08:38:38;;;;;;;19.42;16.70;;;20.20;77.70;;;;;;5133173;27;20367;-82
2022/05/07 08:41:04;;;;;;;20.52;16.45;;;20.30;76.30;;;;;;5140515;27;20039;-82
2022/05/07 08:43:36;;;;;;;20.75;15.88;;;20.40;73.90;;;;;;5124196;27;20039;-82
2022/05/07 08:46:10;;;;;;;22.63;16.05;;;20.30;74.60;;;;;;5132146;27;20147;-82
2022/05/07 08:48:38;;;;;;;19.27;16.85;;;20.30;73.70;;;;;;5176657;27;20055;-82
2022/05/07 08:51:05;;;;;;;23.67;17.88;;;20.10;72.50;;;;;;5148627;27;20047;-82
2022/05/07 08:53:34;;;;;;;21.92;18.77;;;20.00;74.10;;;;;;5145636;27;20039;-81
2022/05/07 08:56:04;;;;;;;24.02;18.17;;;20.10;74.70;;;;;;5137913;27;20508;-83
2022/05/07 08:58:33;;;;;;;21.23;18.30;;;20.40;74.70;;;;;;5133488;27;20039;-81
2022/05/07 09:01:00;;;;;;;20.98;18.05;;;20.60;74.00;;;;;;5138828;27;20133;-82
2022/05/07 09:03:46;;;;;;;21.30;18.17;;;20.80;72.50;;;;;;5112424;27;20519;-81
2022/05/07 09:06:21;;;;;;;;;;;21.00;71.20;;;;;;5145979;27;20054;-82
2022/05/07 09:08:50;;;;;;;26.55;20.33;;;21.10;69.50;;;;;;5148642;27;19919;-82
2022/05/07 09:11:17;;;;;;;21.67;18.90;;;20.80;70.90;;;;;;5145780;27;20530;-89
2022/05/07 09:13:46;;;;;;;24.67;18.67;;;20.80;71.30;;;;;;5148370;27;20396;-85
2022/05/07 09:16:17;;;;;;;24.42;18.67;;;20.90;71.10;;;;;;5143018;27;20395;-83
2022/05/07 09:18:50;;;;;;;22.10;18.30;;;21.10;71.50;;;;;;5135054;27;20058;-82
2022/05/07 09:21:16;;;;;;;21.48;17.92;;;21.00;69.90;;;;;;5116980;27;20440;-81
2022/05/07 09:24:05;;;;;;;22.27;18.55;;;21.10;69.80;;;;;;5127526;27;20050;-80
2022/05/07 09:26:34;;;;;;;23.60;18.38;;;21.00;68.90;;;;;;5110231;28;20130;-80
2022/05/07 09:29:00;;;;;;;21.10;17.30;;;21.00;68.90;;;;;;5145791;27;20051;-81
2022/05/07 09:31:29;;;;;;;19.20;17.20;;;20.90;68.00;;;;;;5110660;28;20083;-80
2022/05/07 09:33:55;;;;;;;20.83;17.27;;;21.00;68.10;;;;;;5094505;28;20052;-80
2022/05/07 09:36:24;;;;;;;19.67;15.27;;;21.10;66.80;;;;;;5110800;28;20051;-81
2022/05/07 09:39:00;;;;;;;19.92;14.70;;;21.20;64.80;;;;;;5128511;27;20128;-80
2022/05/07 09:41:25;;;;;;;;;;;21.50;62.60;;;;;;5128318;27;20047;-80
2022/05/07 09:43:51;;;;;;;19.40;15.47;;;21.60;63.00;;;;;;5111333;28;19964;-80
2022/05/07 09:46:20;;;;;;;17.80;14.80;;;21.70;61.90;;;;;;5110200;28;20131;-82
2022/05/07 09:48:46;;;;;;;20.85;14.57;;;21.90;60.10;;;;;;5137325;27;20142;-81
2022/05/07 09:51:12;;;;;;;16.90;14.48;;;22.00;59.50;;;;;;5147919;27;20049;-81
2022/05/07 09:59:12;;;;;;;17.50;15.43;;;22.30;59.70;;;;;;5147962;27;20696;-81
2022/05/07 10:01:55;;;;;;;17.85;15.77;;;22.20;59.80;;;;;;5103967;27;20149;-80
2022/05/07 10:04:43;;;;;;;19.05;16.00;;;22.40;58.60;;;;;;5132115;27;20059;-83
2022/05/07 10:07:22;;;;;;;17.95;15.02;;;22.50;59.70;;;;;;5116864;27;20133;-83
2022/05/07 10:10:25;;;;;;;17.77;15.88;;;22.60;58.50;;;;;;5143962;27;20046;-80
2022/05/07 10:12:53;;;;;;;18.67;15.82;;;22.80;57.10;;;;;;5113825;27;20050;-81
2022/05/07 10:15:24;;;;;;;23.05;16.88;;;23.00;56.50;;;;;;5102869;27;20055;-81
2022/05/07 10:18:04;;;;;;;20.33;15.48;;;23.30;54.90;;;;;;5118033;27;20050;-81
2022/05/07 10:20:49;;;;;;;28.25;15.80;;;23.30;53.50;;;;;;5113214;27;20035;-81
2022/05/07 10:23:28;;;;;;;19.45;15.38;;;23.30;53.60;;;;;;5114914;27;20051;-81
2022/05/07 10:25:58;;;;;;;18.38;15.50;;;23.30;53.30;;;;;;5127275;27;20446;-81
2022/05/07 10:28:38;;;;;;;18.15;15.60;;;23.10;54.20;;;;;;5114730;27;20051;-82
2022/05/07 10:31:14;;;;;;;21.00;15.70;;;23.00;54.70;;;;;;5128164;27;20133;-81
2022/05/07 10:33:40;;;;;;;17.48;15.40;;;23.00;54.90;;;;;;5127133;27;20089;-81
2022/05/07 10:36:12;;;;;;;20.20;16.73;;;23.10;54.70;;;;;;5117380;27;20085;-82
2022/05/07 10:38:39;;;;;;;15.75;14.05;;;23.10;53.90;;;;;;5124362;27;20046;-82
2022/05/07 10:41:07;;;;;;;18.55;15.93;;;23.10;53.50;;;;;;5119838;27;20488;-83
2022/05/07 10:43:40;;;;;;;19.63;16.73;;;22.80;53.30;;;;;;5112344;27;20054;-81
2022/05/07 10:46:08;;;;;;;19.98;16.75;;;22.50;54.00;;;;;;5153873;27;20069;-82
2022/05/07 10:49:07;;;;;;;22.35;15.65;;;22.40;56.00;;;;;;5125809;27;20053;-81
2022/05/07 10:51:38;;;;;;;22.75;16.92;;;22.40;55.60;;;;;;5136527;27;20446;-80
2022/05/07 10:54:26;;;;;;;19.38;16.35;;;22.50;55.80;;;;;;5124800;27;20086;-81
2022/05/07 10:56:57;;;;;;;22.40;17.52;;;22.70;55.60;;;;;;5116137;27;20043;-80
2022/05/07 10:59:25;;;;;;;21.48;17.77;;;22.80;54.60;;;;;;5112903;27;20054;-82
2022/05/07 11:01:51;;;;;;;24.08;17.90;;;22.70;55.10;;;;;;5116445;27;20514;-81
2022/05/07 11:04:22;;;;;;;22.38;17.08;;;22.70;55.90;;;;;;5116985;27;20055;-80
2022/05/07 11:06:50;;;;;;;22.20;16.75;;;22.70;55.80;;;;;;5124561;27;20175;-81
2022/05/07 11:09:18;;;;;;;21.15;17.45;;;22.80;55.50;;;;;;5131107;27;20051;-80
2022/05/07 11:11:46;;;;;;;18.20;16.10;;;22.90;54.20;;;;;;5134623;27;20055;-80
2022/05/07 11:14:24;;;;;;;18.30;15.77;;;23.00;53.20;;;;;;5112349;27;20377;-84
2022/05/07 11:16:58;;;;;;;19.42;16.30;;;23.10;52.80;;;;;;5113727;27;20039;-84
2022/05/07 11:19:34;;;;;;;19.60;15.73;;;23.40;52.50;;;;;;5139987;27;20042;-83
2022/05/07 11:22:03;;;;;;;22.63;15.63;;;23.50;51.80;;;;;;5099539;27;20077;-82
2022/05/07 11:24:31;;;;;;;17.73;15.85;;;23.60;51.70;;;;;;5139056;27;20471;-82
2022/05/07 11:27:02;;;;;;;18.98;15.90;;;23.60;51.60;;;;;;5131815;27;20061;-82
2022/05/07 11:29:33;;;;;;;20.38;17.00;;;23.50;51.60;;;;;;5121911;27;20222;-83
2022/05/07 11:32:24;;;;;;;26.20;20.85;;;23.50;56.60;;;;;;5117642;27;20475;-81
2022/05/07 11:34:56;;;;;;;33.95;22.25;;;23.50;54.30;;;;;;5124987;27;20484;-83
2022/05/07 11:37:25;;;;;;;25.10;22.05;;;23.40;55.70;;;;;;5150332;27;20484;-82
2022/05/07 11:39:59;;;;;;;28.33;22.10;;;23.20;55.90;;;;;;5124930;27;20035;-80
2022/05/07 11:42:44;;;;;;;35.55;23.73;;;22.80;56.30;;;;;;5112002;27;20090;-81
2022/05/07 11:45:29;;;;;;;29.98;22.88;;;22.40;57.70;;;;;;5132595;27;20050;-80
2022/05/07 11:48:13;;;;;;;27.55;21.90;;;22.10;58.80;;;;;;5115993;27;20043;-83
2022/05/07 11:51:02;;;;;;;28.08;22.38;;;21.90;60.30;;;;;;5118246;27;20069;-83
2022/05/07 11:53:35;;;;;;;27.02;21.60;;;21.90;60.70;;;;;;5140713;27;20047;-85
2022/05/07 11:56:06;;;;;;;27.30;21.63;;;22.10;60.40;;;;;;5129107;27;20134;-84
2022/05/07 11:58:42;;;;;;;27.30;21.48;;;22.40;59.40;;;;;;5111701;27;20100;-83
2022/05/07 12:01:21;;;;;;;28.00;21.35;;;22.50;58.40;;;;;;5128929;27;20042;-83
2022/05/07 12:03:48;;;;;;;29.80;21.40;;;22.40;58.00;;;;;;5127944;27;20050;-82
2022/05/07 12:06:24;;;;;;;27.23;22.17;;;22.00;59.40;;;;;;5109887;28;20062;-82
2022/05/07 12:08:50;;;;;;;29.52;22.48;;;21.90;59.80;;;;;;5111171;28;20097;-83
2022/05/07 12:11:17;;;;;;;25.60;20.05;;;22.00;60.20;;;;;;5128894;27;20638;-82
2022/05/07 12:13:45;;;;;;;26.90;21.48;;;22.50;59.40;;;;;;5126883;27;20494;-83
2022/05/07 12:18:56;;;;;;;29.40;22.42;;;23.40;56.10;;;;;;5128925;28;20093;-82
2022/05/07 12:29:48;;;;;;;28.13;21.52;;;23.60;54.70;;;;;;5128506;27;20083;-84
2022/05/07 12:29:49;;;;;;;32.08;23.35;;;24.00;53.40;;;;;;5128476;28;19923;-82
2022/05/07 12:32:20;;;;;;;30.08;23.02;;;23.60;55.00;;;;;;5112636;28;20051;-83
2022/05/07 12:34:46;;;;;;;28.35;22.73;;;23.20;56.30;;;;;;5127824;27;20082;-83
2022/05/07 12:37:12;;;;;;;29.10;23.65;;;23.00;57.80;;;;;;5094530;28;20143;-82
2022/05/07 12:39:39;;;;;;;32.67;24.02;;;22.80;57.40;;;;;;5111181;28;20047;-83
2022/05/07 12:42:10;;;;;;;29.30;22.13;;;22.90;57.90;;;;;;5127989;27;20078;-83
2022/05/07 12:44:36;;;;;;;30.80;22.33;;;23.30;58.60;;;;;;5109151;27;20714;-82
2022/05/07 12:47:05;;;;;;;28.10;22.23;;;23.40;58.30;;;;;;5128176;27;20035;-83
2022/05/07 12:49:31;;;;;;;28.58;20.83;;;23.70;57.30;;;;;;5112215;28;20057;-82
2022/05/07 12:51:57;;;;;;;27.98;20.23;;;24.60;54.90;;;;;;5111866;27;20039;-83
2022/05/07 12:54:23;;;;;;;25.48;19.60;;;25.30;51.10;;;;;;5128649;27;20047;-81
2022/05/07 12:56:55;;;;;;;24.38;19.17;;;25.00;50.60;;;;;;5125496;27;20303;-80
2022/05/07 12:59:27;;;;;;;24.95;19.08;;;24.50;51.70;;;;;;5108681;27;20096;-81
2022/05/07 13:01:52;;;;;;;26.63;19.13;;;24.60;51.50;;;;;;5132813;27;20225;-80
2022/05/07 13:04:21;;;;;;;24.52;18.83;;;24.20;52.50;;;;;;5138724;27;20049;-80
2022/05/07 13:06:47;;;;;;;25.42;17.60;;;23.80;53.70;;;;;;5134283;27;20131;-80